Time;durP1;ratioP1;P1;durP2;ratioP2;P2;SDS_P1;SDS_P2;PMS_P1;PMS_P2;Temp;Humidity;BMP_temperature;BMP_pressure;BME280_temperature;BME280_humidity;BME280_pressure;Samples;Min_cycle;Max_cycle;Signal;HPM_P1;HPM_P2
2022/10/10 00:04:56;;;;;;;6.60;3.80;;;;;;;3.31;100.00;96968.53;10440871;28;20605;-76
2022/10/10 00:09:57;;;;;;;5.27;3.03;;;;;;;3.15;100.00;96966.97;10459043;28;20265;-75
2022/10/10 00:14:57;;;;;;;9.53;3.63;;;;;;;3.15;100.00;96971.31;10458029;28;20196;-74
2022/10/10 00:19:58;;;;;;;12.53;3.87;;;;;;;3.09;100.00;96957.03;10458225;28;20208;-76
2022/10/10 00:24:58;;;;;;;10.10;3.93;;;;;;;3.13;100.00;96950.72;10458178;28;20696;-74
2022/10/10 00:29:58;;;;;;;9.47;4.00;;;;;;;2.94;100.00;96948.56;10457809;28;20229;-75
2022/10/10 00:34:59;;;;;;;6.83;4.00;;;;;;;3.00;100.00;96939.53;10435918;28;20267;-74
2022/10/10 00:39:59;;;;;;;7.17;4.10;;;;;;;2.89;100.00;96940.25;10416686;28;20189;-75
2022/10/10 00:45:19;;;;;;;5.77;4.07;;;;;;;3.10;100.00;96942.34;10416884;28;20657;-76
2022/10/10 00:50:20;;;;;;;13.07;4.00;;;;;;;3.02;100.00;96935.09;10415883;28;20258;-76
2022/10/10 00:55:21;;;;;;;6.83;3.97;;;;;;;2.98;100.00;96924.09;10415795;28;20187;-75
2022/10/10 01:00:21;;;;;;;8.80;4.60;;;;;;;2.90;100.00;96920.41;10415304;28;20207;-75
2022/10/10 01:05:22;;;;;;;9.50;4.10;;;;;;;3.00;100.00;96919.69;10414860;28;20657;-76
2022/10/10 01:10:23;;;;;;;10.20;3.43;;;;;;;3.18;100.00;96914.16;10396473;28;20567;-76
2022/10/10 01:15:59;;;;;;;7.73;3.73;;;;;;;3.10;100.00;96922.44;10396814;28;20580;-77
2022/10/10 01:21:22;;;;;;;6.63;3.27;;;;;;;3.10;100.00;96913.88;10343291;28;20200;-75
2022/10/10 01:27:00;;;;;;;6.80;3.50;;;;;;;3.08;100.00;96915.72;10424168;28;20570;-74
2022/10/10 01:32:08;;;;;;;3.20;2.90;;;;;;;2.96;100.00;96909.63;10454145;28;20563;-74
2022/10/10 01:37:20;;;;;;;15.03;5.00;;;;;;;3.27;100.00;96916.09;10436306;28;20270;-74
2022/10/10 01:42:22;;;;;;;9.63;4.43;;;;;;;3.53;100.00;96903.13;10453695;28;20223;-74
2022/10/10 01:47:23;;;;;;;5.63;2.93;;;;;;;4.19;100.00;96895.78;10453619;28;20245;-74
2022/10/10 01:52:33;;;;;;;6.07;2.37;;;;;;;4.37;100.00;96885.03;10453261;28;20187;-74
2022/10/10 01:57:56;;;;;;;3.17;1.80;;;;;;;4.88;100.00;96850.06;10453078;28;20188;-74
2022/10/10 02:03:08;;;;;;;2.20;1.90;;;;;;;5.39;100.00;96823.59;10435001;28;20721;-74
2022/10/10 02:08:13;;;;;;;3.17;1.80;;;;;;;5.43;100.00;96793.81;10434982;28;20226;-74
2022/10/10 02:13:15;;;;;;;5.23;2.10;;;;;;;6.41;100.00;96768.56;10452309;28;20192;-74
2022/10/10 02:18:19;;;;;;;5.83;2.03;;;;;;;5.72;100.00;96760.25;10434449;28;20670;-74
2022/10/10 02:23:20;;;;;;;3.70;1.67;;;;;;;6.13;100.00;96744.84;10451570;28;20267;-74
2022/10/10 02:28:25;;;;;;;3.73;1.70;;;;;;;6.00;100.00;96741.63;10451938;28;20244;-74
2022/10/10 02:33:32;;;;;;;5.83;2.20;;;;;;;6.04;100.00;96730.00;10451979;28;20843;-74
2022/10/10 02:38:32;;;;;;;4.17;2.00;;;;;;;6.37;100.00;96704.72;10451547;28;20235;-75
2022/10/10 02:43:33;;;;;;;5.87;2.00;;;;;;;6.16;100.00;96696.97;10433601;28;20194;-75
2022/10/10 02:48:34;;;;;;;1.63;1.47;;;;;;;7.67;97.17;96647.31;10433532;28;20219;-74
2022/10/10 02:53:35;;;;;;;7.60;2.03;;;;;;;7.62;94.55;96631.28;10416457;28;20199;-74
2022/10/10 02:58:36;;;;;;;5.37;1.90;;;;;;;8.12;91.22;96614.53;10451118;28;20647;-74
2022/10/10 03:03:36;;;;;;;7.50;1.80;;;;;;;8.79;88.64;96596.88;10435185;28;20197;-74
2022/10/10 03:08:37;;;;;;;3.97;1.50;;;;;;;9.07;86.22;96584.56;10388297;28;20220;-74
2022/10/10 03:13:38;;;;;;;2.90;1.63;;;;;;;9.19;86.13;96585.16;10405275;28;20704;-74
2022/10/10 03:18:38;;;;;;;1.63;1.20;;;;;;;9.34;83.78;96582.84;10406503;28;20188;-74
2022/10/10 03:23:39;;;;;;;3.87;1.60;;;;;;;9.41;82.64;96549.88;10405666;28;20184;-74
2022/10/10 03:28:39;;;;;;;4.43;1.40;;;;;;;9.25;83.53;96579.34;10406167;28;20223;-75
2022/10/10 03:33:39;;;;;;;2.83;1.37;;;;;;;9.37;83.04;96571.22;10411870;28;20192;-75
2022/10/10 03:38:40;;;;;;;4.63;2.33;;;;;;;9.40;83.34;96565.69;10414137;28;20232;-74
2022/10/10 03:43:40;;;;;;;3.47;1.37;;;;;;;9.53;82.79;96550.44;10395996;28;20195;-74
2022/10/10 03:48:40;;;;;;;3.00;1.57;;;;;;;9.71;82.51;96541.69;10413837;28;20703;-75
2022/10/10 03:53:41;;;;;;;2.47;1.40;;;;;;;9.47;83.46;96553.66;10395788;28;20638;-75
2022/10/10 03:58:41;;;;;;;3.80;1.80;;;;;;;9.83;80.60;96506.44;10395787;28;20788;-78
2022/10/10 04:03:41;;;;;;;2.90;1.30;;;;;;;9.82;80.58;96512.66;10415219;28;20197;-78
2022/10/10 04:08:42;;;;;;;7.43;1.80;;;;;;;9.97;80.68;96518.94;10416459;28;20274;-77
2022/10/10 04:13:42;;;;;;;4.67;1.90;;;;;;;10.02;80.75;96518.47;10415602;28;20195;-78
2022/10/10 04:18:43;;;;;;;1.97;1.40;;;;;;;10.11;80.49;96514.09;10415996;28;20181;-75
2022/10/10 04:23:43;;;;;;;3.07;1.50;;;;;;;10.03;80.99;96527.13;10415670;28;20197;-75
2022/10/10 04:28:43;;;;;;;3.07;1.63;;;;;;;9.93;82.02;96553.44;10415783;28;20224;-75
2022/10/10 04:33:44;;;;;;;1.33;1.10;;;;;;;9.90;82.03;96533.63;10397416;28;20195;-75
2022/10/10 04:38:44;;;;;;;3.57;1.20;;;;;;;9.83;82.46;96561.38;10415098;28;20228;-76
2022/10/10 04:43:45;;;;;;;5.90;1.77;;;;;;;9.69;83.02;96554.13;10412716;28;20676;-75
2022/10/10 04:48:46;;;;;;;1.57;1.33;;;;;;;9.62;83.00;96556.53;10414788;28;20236;-76
2022/10/10 04:53:46;;;;;;;2.43;1.70;;;;;;;9.43;83.93;96570.63;10380309;28;20680;-75
2022/10/10 04:58:47;;;;;;;3.03;1.50;;;;;;;9.36;84.84;96580.88;10414532;28;20667;-76
2022/10/10 05:03:47;;;;;;;2.97;1.67;;;;;;;9.14;85.61;96583.97;10414257;28;20196;-75
2022/10/10 05:08:47;;;;;;;3.17;1.70;;;;;;;9.10;86.58;96594.72;10396604;28;20252;-76
2022/10/10 05:13:51;;;;;;;3.50;2.00;;;;;;;8.64;89.77;96614.03;10420057;28;20191;-76
2022/10/10 05:18:51;;;;;;;4.13;2.23;;;;;;;8.57;90.79;96606.78;10454870;28;20896;-75
2022/10/10 05:23:51;;;;;;;3.17;2.10;;;;;;;8.47;91.20;96599.94;10454475;28;20245;-75
2022/10/10 05:28:52;;;;;;;5.07;2.30;;;;;;;7.65;94.86;96626.59;10454717;28;20222;-76
2022/10/10 05:33:52;;;;;;;6.53;2.50;;;;;;;7.23;99.26;96624.31;10435963;28;20234;-76
2022/10/10 05:38:52;;;;;;;7.10;2.60;;;;;;;7.40;100.00;96611.56;10454117;28;20234;-76
2022/10/10 05:43:53;;;;;;;9.53;2.30;;;;;;;8.07;98.38;96581.06;10454013;28;20361;-76
2022/10/10 05:48:53;;;;;;;8.10;2.37;;;;;;;8.27;96.26;96557.44;10453660;28;20581;-76
2022/10/10 05:53:55;;;;;;;5.13;2.30;;;;;;;8.12;96.39;96573.59;10452838;28;20200;-76
2022/10/10 05:58:55;;;;;;;5.20;2.50;;;;;;;7.77;100.00;96598.56;10453512;28;20220;-76
2022/10/10 06:03:56;;;;;;;8.50;2.47;;;;;;;7.75;100.00;96597.91;10448325;28;20188;-76
2022/10/10 06:08:57;;;;;;;4.47;2.33;;;;;;;7.81;100.00;96596.50;10422638;28;20220;-76
2022/10/10 06:13:58;;;;;;;9.63;2.90;;;;;;;7.72;100.00;96607.78;10452489;28;20219;-76
2022/10/10 06:18:58;;;;;;;8.13;2.87;;;;;;;7.75;100.00;96613.56;10452718;28;20731;-76
2022/10/10 06:23:59;;;;;;;7.47;2.67;;;;;;;7.84;100.00;96607.47;10452398;28;20742;-76
2022/10/10 06:28:59;;;;;;;4.63;2.37;;;;;;;8.12;100.00;96617.97;10452188;28;20223;-76
2022/10/10 06:33:59;;;;;;;6.43;2.50;;;;;;;8.35;100.00;96610.56;10434210;28;20559;-76
2022/10/10 06:39:00;;;;;;;13.20;4.27;;;;;;;8.54;100.00;96611.47;10433837;28;20239;-76
2022/10/10 06:44:00;;;;;;;12.20;4.63;;;;;;;8.54;100.00;96621.91;10433475;28;20198;-76
2022/10/10 06:49:00;;;;;;;9.40;3.30;;;;;;;8.98;100.00;96606.38;10451518;28;20708;-75
2022/10/10 06:54:01;;;;;;;9.73;3.97;;;;;;;9.00;96.81;96612.25;10440441;28;20184;-76
2022/10/10 06:59:01;;;;;;;5.33;2.43;;;;;;;9.10;97.05;96613.00;10406748;28;20192;-76
2022/10/10 07:04:02;;;;;;;3.37;2.20;;;;;;;9.50;95.86;96621.34;10391845;28;20191;-76
2022/10/10 07:09:09;;;;;;;5.23;2.30;;;;;;;9.80;93.28;96606.16;10408164;28;20227;-77
2022/10/10 07:14:11;;;;;;;5.93;2.50;;;;;;;10.06;91.30;96607.97;10407401;28;20216;-76
2022/10/10 07:19:11;;;;;;;5.15;2.47;;;;;;;9.96;90.51;96605.47;10407112;28;20593;-77
2022/10/10 07:24:11;;;;;;;4.20;2.37;;;;;;;9.96;93.22;96629.00;10406876;28;20204;-78
2022/10/10 07:29:12;;;;;;;5.32;2.70;;;;;;;9.89;92.54;96641.06;10407008;28;20216;-78
2022/10/10 07:34:12;;;;;;;7.15;2.72;;;;;;;10.25;92.49;96649.63;10400874;28;20192;-80
2022/10/10 07:39:12;;;;;;;4.80;2.08;;;;;;;10.14;91.64;96652.50;10407538;28;20658;-79
2022/10/10 07:44:13;;;;;;;5.97;2.95;;;;;;;10.75;89.73;96621.88;10390178;28;20199;-81
2022/10/10 07:49:13;;;;;;;7.45;2.65;;;;;;;11.23;90.11;96645.72;10408069;28;20216;-81
2022/10/10 07:54:14;;;;;;;5.85;2.97;;;;;;;11.84;85.14;96604.19;10407949;28;20254;-78
2022/10/10 07:59:14;;;;;;;4.55;2.17;;;;;;;11.93;81.67;96578.78;10407861;28;20272;-80
2022/10/10 08:04:15;;;;;;;6.30;2.08;;;;;;;12.45;81.68;96574.78;10407929;28;20199;-81
2022/10/10 08:09:15;;;;;;;6.47;2.20;;;;;;;13.10;76.12;96543.84;10408168;28;20224;-80
2022/10/10 08:14:15;;;;;;;5.47;2.38;;;;;;;13.00;76.98;96559.84;10407919;28;20184;-80
2022/10/10 08:19:16;;;;;;;8.15;2.05;;;;;;;13.30;77.07;96555.50;10412048;28;20185;-80
2022/10/10 08:24:16;;;;;;;5.32;2.10;;;;;;;13.35;75.20;96553.22;10414675;28;20193;-80
2022/10/10 08:29:17;;;;;;;6.22;2.25;;;;;;;14.49;74.32;96549.50;10413561;28;20228;-80
2022/10/10 08:34:17;;;;;;;5.40;2.58;;;;;;;14.37;72.20;96545.72;10423314;28;20199;-79
2022/10/10 08:39:17;;;;;;;4.88;2.33;;;;;;;16.02;66.33;96472.63;10416862;28;20232;-80
2022/10/10 08:44:33;;;;;;;9.68;2.45;;;;;;;16.99;61.20;96416.91;10414478;28;20671;-81
2022/10/10 08:49:52;;;;;;;5.28;2.35;;;;;;;17.08;59.53;96416.47;10414430;28;20286;-80
2022/10/10 08:54:53;;;;;;;5.13;2.00;;;;;;;16.55;62.68;96464.88;10396986;28;20199;-79
2022/10/10 08:59:57;;;;;;;4.38;2.60;;;;;;;17.10;63.04;96500.97;10395350;28;20303;-79
2022/10/10 09:04:58;;;;;;;2.90;2.20;;;;;;;16.69;60.56;96449.00;10396520;28;20564;-80
2022/10/10 09:10:19;;;;;;;6.47;1.80;;;;;;;16.98;60.99;96469.00;10395286;28;20224;-81
2022/10/10 09:15:24;;;;;;;11.85;3.42;;;;;;;17.22;59.85;96466.78;10395251;28;20192;-79
2022/10/10 09:20:43;;;;;;;12.68;4.90;;;;;;;17.34;59.89;96469.63;10411435;28;20193;-80
2022/10/10 09:25:56;;;;;;;8.23;2.83;;;;;;;17.72;58.91;96453.03;10429019;28;20197;-80
2022/10/10 09:31:36;;;;;;;6.20;2.75;;;;;;;19.02;56.49;96444.88;10411968;28;20193;-82
2022/10/10 09:36:36;;;;;;;11.70;3.88;;;;;;;18.09;57.86;96454.16;10300226;28;20604;-83
2022/10/10 09:41:45;;;;;;;3.35;2.15;;;;;;;17.02;58.35;96451.72;10438692;28;20199;-79
2022/10/10 09:46:45;;;;;;;5.95;2.55;;;;;;;18.86;56.90;96462.13;10412887;28;20216;-81
2022/10/10 09:51:46;;;;;;;4.97;2.30;;;;;;;21.23;51.29;96398.75;10414537;28;20723;-82
2022/10/10 09:56:50;;;;;;;7.40;2.55;;;;;;;20.79;49.40;96365.25;10426760;28;20188;-81
2022/10/10 10:02:01;;;;;;;2.95;2.00;;;;;;;16.35;59.86;96475.38;10411449;28;20196;-80
2022/10/10 10:07:04;;;;;;;4.35;2.10;;;;;;;16.55;62.15;96525.69;10411395;28;20309;-79
2022/10/10 10:12:05;;;;;;;6.60;2.38;;;;;;;15.96;63.08;96529.69;10414752;28;20204;-79
2022/10/10 10:17:07;;;;;;;9.82;2.53;;;;;;;15.27;65.61;96568.19;10426514;28;20188;-80
2022/10/10 10:22:31;;;;;;;7.13;2.45;;;;;;;15.51;65.26;96569.59;10399325;28;20193;-79
2022/10/10 10:27:31;;;;;;;8.98;2.83;;;;;;;15.77;63.58;96547.03;10385958;28;20319;-80
2022/10/10 10:32:46;;;;;;;4.32;2.15;;;;;;;15.27;64.98;96552.34;10371501;28;20570;-78
2022/10/10 10:38:02;;;;;;;7.22;2.20;;;;;;;15.65;62.97;96523.00;10361596;28;20232;-79
2022/10/10 10:43:29;;;;;;;4.88;2.22;;;;;;;16.44;62.24;96520.97;10408526;28;20188;-79
2022/10/10 10:48:44;;;;;;;7.20;2.30;;;;;;;15.55;64.17;96538.34;10414652;28;20303;-78
2022/10/10 10:54:05;;;;;;;4.68;2.72;;;;;;;16.08;65.29;96545.84;10435254;28;20191;-78
2022/10/10 10:59:35;;;;;;;5.20;2.65;;;;;;;16.35;62.66;96512.38;10432028;28;20184;-79
2022/10/10 11:04:42;;;;;;;8.27;3.08;;;;;;;16.53;62.86;96509.19;10431948;28;20245;-78
2022/10/10 11:09:56;;;;;;;9.77;2.85;;;;;;;16.33;63.89;96509.13;10440748;28;20731;-79
2022/10/10 11:14:59;;;;;;;9.63;2.58;;;;;;;16.28;63.23;96493.06;10407346;28;20676;-78
2022/10/10 11:20:01;;;;;;;5.72;2.38;;;;;;;17.76;59.58;96459.56;10408114;28;20180;-77
2022/10/10 11:25:43;;;;;;;5.70;1.50;;;;;;;17.18;60.62;96468.19;10407185;28;20192;-78
2022/10/10 11:30:47;;;;;;;8.05;2.50;;;;;;;16.90;62.08;96482.44;10409061;28;20196;-77
2022/10/10 11:35:59;;;;;;;6.28;2.30;;;;;;;17.76;61.00;96472.78;10390130;28;20232;-76
2022/10/10 11:41:04;;;;;;;5.82;2.35;;;;;;;17.97;59.83;96450.56;10390248;28;20200;-77
2022/10/10 11:46:28;;;;;;;6.97;2.30;;;;;;;17.76;61.54;96486.84;10417904;28;20224;-76
2022/10/10 11:51:39;;;;;;;12.95;2.97;;;;;;;16.64;64.90;96520.22;10407021;28;20188;-77
2022/10/10 11:56:42;;;;;;;17.48;2.80;;;;;;;16.79;65.80;96538.56;10414418;28;20197;-77
2022/10/10 12:01:48;;;;;;;5.35;2.10;;;;;;;16.65;67.01;96557.03;10415362;28;20668;-77
2022/10/10 12:06:54;;;;;;;8.02;2.42;;;;;;;17.18;65.67;96529.06;10413725;28;20282;-78
2022/10/10 12:12:00;;;;;;;6.65;2.88;;;;;;;17.41;62.95;96494.25;10414923;28;20621;-76
2022/10/10 12:17:01;;;;;;;6.88;2.65;;;;;;;16.44;65.52;96515.66;10415116;28;20271;-77
2022/10/10 12:22:04;;;;;;;6.22;2.60;;;;;;;16.62;65.66;96523.06;10414437;28;20189;-76
2022/10/10 12:27:05;;;;;;;6.18;2.58;;;;;;;16.95;66.15;96530.28;10414604;28;20646;-77
2022/10/10 12:32:16;;;;;;;8.40;2.17;;;;;;;16.54;68.38;96557.63;10414463;28;20240;-77
2022/10/10 12:37:30;;;;;;;5.80;2.10;;;;;;;16.89;66.91;96528.44;10434702;28;20230;-77
2022/10/10 12:42:46;;;;;;;5.57;2.25;;;;;;;16.38;67.55;96517.28;10437157;28;20235;-77
2022/10/10 12:47:46;;;;;;;7.55;2.50;;;;;;;16.87;69.31;96555.09;10453756;28;20227;-77
2022/10/10 12:52:58;;;;;;;3.63;2.35;;;;;;;17.70;63.73;96469.13;10437410;28;20190;-77
2022/10/10 12:58:01;;;;;;;7.80;2.15;;;;;;;17.83;64.13;96484.19;10436448;28;20885;-76
2022/10/10 13:03:08;;;;;;;11.77;2.70;;;;;;;17.37;64.72;96491.19;10432289;28;20180;-76
2022/10/10 13:08:17;;;;;;;6.95;2.22;;;;;;;17.85;64.56;96499.91;10453899;28;20259;-76
2022/10/10 13:13:19;;;;;;;10.18;5.45;;;;;;;17.92;63.46;96493.59;10436447;28;20188;-76
2022/10/10 13:18:39;;;;;;;10.85;3.55;;;;;;;17.87;64.79;96516.38;10452719;28;20279;-77
2022/10/10 13:23:42;;;;;;;5.13;2.40;;;;;;;17.83;63.60;96498.25;10453947;28;20245;-76
2022/10/10 13:28:43;;;;;;;5.03;2.70;;;;;;;17.62;65.68;96514.41;10435445;28;20219;-76
2022/10/10 13:33:44;;;;;;;3.95;2.10;;;;;;;17.62;66.37;96528.44;10451338;28;20187;-77
2022/10/10 13:38:46;;;;;;;5.50;2.30;;;;;;;17.36;66.01;96512.59;10452351;28;20274;-77
2022/10/10 13:43:47;;;;;;;6.68;2.60;;;;;;;16.83;66.18;96506.22;10434246;28;20423;-77
2022/10/10 13:48:49;;;;;;;4.57;2.33;;;;;;;17.05;68.15;96545.78;10434125;28;20224;-77
2022/10/10 13:53:52;;;;;;;11.65;3.90;;;;;;;17.27;67.91;96541.94;10401556;28;20184;-79
2022/10/10 13:59:04;;;;;;;8.43;4.53;;;;;;;16.90;67.94;96535.34;10398631;28;20185;-80
2022/10/10 14:04:11;;;;;;;12.57;5.13;;;;;;;17.08;69.02;96554.13;10421801;28;20198;-80
2022/10/10 14:09:17;;;;;;;9.57;4.13;;;;;;;17.07;68.73;96547.19;10424982;28;20248;-79
2022/10/10 14:14:25;;;;;;;9.07;2.58;;;;;;;17.28;67.01;96517.06;10395617;28;20195;-80
2022/10/10 14:19:26;;;;;;;6.55;2.90;;;;;;;16.82;68.53;96531.03;10388566;28;20180;-80
2022/10/10 14:24:27;;;;;;;8.02;2.78;;;;;;;16.20;71.98;96570.69;10419965;28;20189;-79
2022/10/10 14:29:28;;;;;;;8.60;2.90;;;;;;;16.25;71.47;96572.75;10415833;28;20589;-79
2022/10/10 14:34:28;;;;;;;8.27;3.05;;;;;;;16.00;73.34;96594.38;10394229;28;20233;-79
2022/10/10 14:39:29;;;;;;;7.47;2.75;;;;;;;15.81;74.59;96585.28;10439198;28;20228;-80
2022/10/10 14:44:29;;;;;;;10.18;3.05;;;;;;;15.44;76.23;96595.13;10443821;28;20184;-81
2022/10/10 14:49:29;;;;;;;6.95;3.20;;;;;;;15.04;78.18;96605.31;10439425;28;20223;-80
2022/10/10 14:54:30;;;;;;;7.57;3.10;;;;;;;15.13;78.04;96584.88;10440815;28;20546;-80
2022/10/10 14:59:31;;;;;;;7.07;3.13;;;;;;;14.94;78.52;96587.13;10449019;28;20199;-81
2022/10/10 15:04:31;;;;;;;6.68;3.05;;;;;;;16.05;74.41;96548.88;10445274;28;20223;-81
2022/10/10 15:09:31;;;;;;;7.13;2.85;;;;;;;16.97;70.87;96517.66;10445274;28;20219;-81
2022/10/10 15:14:32;;;;;;;7.70;2.78;;;;;;;18.02;66.78;96484.38;10431194;28;20190;-81
2022/10/10 15:19:32;;;;;;;5.40;2.90;;;;;;;16.53;68.80;96503.91;10449227;28;20188;-81
2022/10/10 15:24:33;;;;;;;8.75;3.42;;;;;;;15.73;72.85;96544.97;10448847;28;20191;-81
2022/10/10 15:29:33;;;;;;;8.35;3.10;;;;;;;14.77;76.07;96583.09;10419490;28;20243;-80
2022/10/10 15:34:34;;;;;;;5.90;3.08;;;;;;;14.45;78.28;96614.94;10381919;28;20253;-81
2022/10/10 15:39:36;;;;;;;12.95;3.63;;;;;;;14.03;80.60;96629.59;10415139;28;20224;-81
2022/10/10 15:44:37;;;;;;;7.47;3.35;;;;;;;13.90;81.60;96626.75;10424089;28;20192;-80
2022/10/10 15:49:38;;;;;;;7.00;2.83;;;;;;;13.54;82.48;96625.59;10425400;28;20587;-80
2022/10/10 15:54:39;;;;;;;7.57;3.78;;;;;;;13.30;84.67;96644.16;10414923;28;20196;-81
2022/10/10 16:00:24;;;;;;;8.35;3.25;;;;;;;13.29;85.21;96638.09;10428606;28;20196;-83
2022/10/10 16:05:27;;;;;;;6.97;3.47;;;;;;;12.95;87.88;96648.97;10446354;28;20564;-81
2022/10/10 16:10:27;;;;;;;7.00;3.78;;;;;;;12.83;89.66;96652.00;10426051;28;20558;-81
2022/10/10 16:15:28;;;;;;;5.82;3.65;;;;;;;12.63;91.02;96651.59;10442875;28;20192;-81
2022/10/10 16:20:28;;;;;;;10.27;4.13;;;;;;;12.65;92.02;96661.94;10432537;28;20652;-81
2022/10/10 16:25:29;;;;;;;11.77;4.95;;;;;;;12.18;95.25;96674.06;10442847;28;20187;-82
2022/10/10 16:30:29;;;;;;;8.70;3.80;;;;;;;12.26;96.71;96668.78;10455871;28;20714;-82
2022/10/10 16:35:29;;;;;;;14.25;8.88;;;;;;;11.99;99.70;96672.63;10456380;28;20247;-80
2022/10/10 16:40:30;;;;;;;10.70;6.07;;;;;;;11.91;100.00;96675.22;10423066;28;20193;-80
2022/10/10 16:45:30;;;;;;;13.05;5.82;;;;;;;11.96;100.00;96686.09;10446904;28;20203;-80
2022/10/10 16:50:54;;;;;;;9.30;4.05;;;;;;;12.12;99.29;96677.34;10435490;28;20226;-80
2022/10/10 16:55:59;;;;;;;8.70;3.90;;;;;;;12.19;98.62;96690.63;10420349;28;20544;-80
2022/10/10 17:00:59;;;;;;;17.38;10.77;;;;;;;12.00;100.00;96705.75;10420811;28;20188;-80
2022/10/10 17:06:04;;;;;;;46.55;23.23;;;;;;;12.01;100.00;96702.16;10421207;28;20587;-80
2022/10/10 17:11:05;;;;;;;31.75;16.15;;;;;;;12.10;100.00;96703.78;10454889;28;20645;-80
2022/10/10 17:16:08;;;;;;;24.08;10.40;;;;;;;11.95;100.00;96710.69;10437279;28;20188;-79
2022/10/10 17:21:12;;;;;;;49.45;17.88;;;;;;;11.90;100.00;96707.72;10454618;28;20586;-80
2022/10/10 17:26:15;;;;;;;35.90;14.50;;;;;;;11.76;100.00;96704.75;10454637;28;20613;-79
2022/10/10 17:31:16;;;;;;;35.88;12.38;;;;;;;11.78;100.00;96712.47;10454425;28;20179;-80
2022/10/10 17:36:19;;;;;;;45.03;15.30;;;;;;;11.66;100.00;96722.47;10435202;28;20232;-79
2022/10/10 17:41:19;;;;;;;37.17;11.93;;;;;;;11.63;100.00;96716.75;10453517;28;20195;-79
2022/10/10 17:46:22;;;;;;;22.80;7.47;;;;;;;11.43;100.00;96724.91;10453762;28;20244;-80
2022/10/10 17:51:22;;;;;;;30.90;11.40;;;;;;;11.45;100.00;96722.94;10419053;28;20656;-79
2022/10/10 17:56:23;;;;;;;35.15;13.20;;;;;;;11.49;100.00;96719.00;10418940;28;20199;-79
2022/10/10 18:01:23;;;;;;;32.63;11.77;;;;;;;11.43;100.00;96717.84;10418640;28;20195;-80
2022/10/10 18:06:24;;;;;;;13.82;5.38;;;;;;;11.43;100.00;96711.78;10452489;28;20207;-80
2022/10/10 18:11:27;;;;;;;16.00;5.25;;;;;;;11.57;100.00;96710.31;10453281;28;20184;-79
2022/10/10 18:16:32;;;;;;;60.38;14.77;;;;;;;11.52;100.00;96712.63;10452474;28;20247;-79
2022/10/10 18:21:33;;;;;;;21.25;7.93;;;;;;;11.60;100.00;96715.25;10451982;28;20199;-79
2022/10/10 18:26:34;;;;;;;45.70;13.65;;;;;;;11.56;100.00;96729.66;10452213;28;20628;-80
2022/10/10 18:31:36;;;;;;;31.08;10.02;;;;;;;11.52;100.00;96728.38;10434474;28;20188;-79
2022/10/10 18:36:38;;;;;;;20.42;9.50;;;;;;;11.48;100.00;96730.47;10451332;28;20344;-78
2022/10/10 18:41:39;;;;;;;11.40;4.28;;;;;;;11.57;100.00;96742.63;10451800;28;20192;-80
2022/10/10 18:46:39;;;;;;;11.87;4.80;;;;;;;11.57;100.00;96742.63;10433819;28;20243;-80
2022/10/10 18:51:41;;;;;;;26.05;10.35;;;;;;;11.52;100.00;96744.09;10451518;28;20736;-81
2022/10/10 18:56:43;;;;;;;11.70;6.80;;;;;;;11.53;100.00;96751.81;10450915;28;20632;-80
2022/10/10 19:01:45;;;;;;;11.95;3.80;;;;;;;11.42;100.00;96757.34;10416153;28;20195;-81
2022/10/10 19:06:46;;;;;;;7.32;3.78;;;;;;;11.35;100.00;96754.56;10450394;28;20219;-81
2022/10/10 19:11:49;;;;;;;6.25;3.90;;;;;;;11.38;100.00;96754.25;10432175;28;20202;-81
2022/10/10 19:16:49;;;;;;;5.65;3.38;;;;;;;11.28;100.00;96769.28;10431687;28;20184;-81
2022/10/10 19:21:50;;;;;;;9.90;3.85;;;;;;;11.40;100.00;96768.00;10450062;28;20555;-80
2022/10/10 19:26:53;;;;;;;6.28;3.53;;;;;;;11.34;100.00;96773.88;10431540;28;20219;-80
2022/10/10 19:31:54;;;;;;;10.45;4.43;;;;;;;11.20;100.00;96771.91;10448955;28;20282;-80
2022/10/10 19:36:55;;;;;;;9.32;3.70;;;;;;;11.28;100.00;96784.22;10450020;28;20258;-81
2022/10/10 19:41:55;;;;;;;7.18;3.50;;;;;;;11.29;100.00;96791.91;10450625;28;20191;-81
2022/10/10 19:46:58;;;;;;;8.18;4.10;;;;;;;11.14;100.00;96791.69;10415960;28;20281;-82
2022/10/10 19:51:58;;;;;;;9.35;4.28;;;;;;;11.24;100.00;96794.19;10450382;28;20188;-81
2022/10/10 19:56:59;;;;;;;11.68;4.25;;;;;;;11.42;100.00;96792.28;10449611;28;20184;-81
2022/10/10 20:01:59;;;;;;;8.70;4.47;;;;;;;11.30;100.00;96798.81;10449819;28;20636;-81
2022/10/10 20:06:59;;;;;;;10.30;5.07;;;;;;;11.27;100.00;96800.91;10449850;28;20297;-82
2022/10/10 20:12:00;;;;;;;8.88;4.53;;;;;;;11.28;100.00;96797.31;10449395;28;20196;-80
2022/10/10 20:17:00;;;;;;;15.68;4.68;;;;;;;11.02;100.00;96796.38;10457372;28;20184;-82
2022/10/10 20:22:01;;;;;;;10.90;4.18;;;;;;;10.84;100.00;96801.72;10455297;28;20605;-82
2022/10/10 20:27:01;;;;;;;9.23;4.03;;;;;;;10.84;100.00;96804.34;10439043;28;20630;-81
2022/10/10 20:32:01;;;;;;;13.70;4.40;;;;;;;10.79;100.00;96801.34;10422251;28;20192;-81
2022/10/10 20:37:02;;;;;;;12.27;4.10;;;;;;;10.95;100.00;96798.00;10456998;28;20224;-81
2022/10/10 20:42:02;;;;;;;9.13;4.17;;;;;;;10.73;100.00;96806.41;10438771;28;20691;-81
2022/10/10 20:47:03;;;;;;;7.97;4.13;;;;;;;10.61;100.00;96819.78;10456490;28;20684;-81
2022/10/10 20:52:03;;;;;;;15.90;4.95;;;;;;;10.54;100.00;96823.97;10421766;28;20249;-81
2022/10/10 20:57:03;;;;;;;10.50;4.67;;;;;;;10.59;100.00;96837.44;10438060;28;20198;-81
2022/10/10 21:02:04;;;;;;;14.57;4.90;;;;;;;10.38;100.00;96847.41;10455600;28;20195;-78
2022/10/10 21:07:04;;;;;;;13.13;4.67;;;;;;;10.17;100.00;96851.97;10437562;28;20223;-81
2022/10/10 21:12:05;;;;;;;12.33;4.63;;;;;;;10.09;100.00;96857.16;10455153;28;20242;-81
2022/10/10 21:17:05;;;;;;;13.27;4.73;;;;;;;10.37;100.00;96858.84;10455833;28;20718;-80
2022/10/10 21:22:05;;;;;;;8.60;4.20;;;;;;;10.61;100.00;96859.06;10450288;28;20185;-81
2022/10/10 21:27:06;;;;;;;10.27;4.20;;;;;;;11.02;100.00;96861.09;10435145;28;20267;-82
2022/10/10 21:32:06;;;;;;;14.38;4.43;;;;;;;11.10;100.00;96855.91;10416116;28;20345;-81
2022/10/10 21:37:07;;;;;;;11.80;4.20;;;;;;;11.14;100.00;96862.47;10433990;28;20228;-81
2022/10/10 21:42:07;;;;;;;10.43;4.30;;;;;;;11.22;100.00;96866.94;10408633;28;20235;-81
2022/10/10 21:47:07;;;;;;;12.05;4.18;;;;;;;11.24;100.00;96878.13;10419666;28;20738;-80
2022/10/10 21:52:08;;;;;;;8.65;4.00;;;;;;;11.32;100.00;96879.97;10413568;28;20191;-80
2022/10/10 21:57:08;;;;;;;10.80;4.30;;;;;;;11.27;100.00;96893.53;10395938;28;20184;-80
2022/10/10 22:02:09;;;;;;;10.32;4.60;;;;;;;11.31;100.00;96888.78;10413385;28;20195;-80
2022/10/10 22:07:09;;;;;;;18.50;4.40;;;;;;;11.42;100.00;96878.84;10413095;28;20242;-81
2022/10/10 22:12:09;;;;;;;13.93;4.10;;;;;;;11.44;100.00;96894.44;10412601;28;20250;-80
2022/10/10 22:17:10;;;;;;;22.95;4.85;;;;;;;11.39;100.00;96892.28;10412619;28;20192;-81
2022/10/10 22:22:10;;;;;;;14.90;4.18;;;;;;;11.16;100.00;96891.97;10412706;28;20235;-80
2022/10/10 22:27:10;;;;;;;14.13;4.45;;;;;;;11.26;100.00;96904.19;10412814;28;20312;-81
2022/10/10 22:32:11;;;;;;;7.45;4.18;;;;;;;11.17;100.00;96898.06;10414218;28;20199;-80
2022/10/10 22:37:11;;;;;;;12.97;4.77;;;;;;;10.96;100.00;96906.28;10412852;28;20720;-81
2022/10/10 22:42:12;;;;;;;11.60;3.97;;;;;;;10.89;100.00;96895.63;10415614;28;20188;-81
2022/10/10 22:47:12;;;;;;;11.00;4.80;;;;;;;10.98;100.00;96910.41;10461048;28;20312;-80
2022/10/10 22:52:12;;;;;;;10.77;4.45;;;;;;;11.00;100.00;96918.94;10413342;28;20576;-80
2022/10/10 22:57:13;;;;;;;13.07;4.20;;;;;;;11.02;100.00;96921.41;10393204;28;20201;-81
2022/10/10 23:02:13;;;;;;;13.35;4.40;;;;;;;11.01;100.00;96931.06;10392958;28;20185;-80
2022/10/10 23:07:15;;;;;;;11.00;3.93;;;;;;;11.04;100.00;96935.16;10410956;28;20247;-80
2022/10/10 23:12:15;;;;;;;8.38;4.22;;;;;;;11.07;100.00;96934.88;10410167;28;20196;-80
2022/10/10 23:17:15;;;;;;;15.03;5.00;;;;;;;10.94;100.00;96939.72;10392628;28;20200;-81
2022/10/10 23:22:16;;;;;;;9.55;4.25;;;;;;;10.87;100.00;96942.94;10392557;28;20196;-80
2022/10/10 23:27:16;;;;;;;10.40;4.05;;;;;;;10.76;100.00;96947.59;10409942;28;20581;-80